Time;durP1;ratioP1;P1;durP2;ratioP2;P2;SDS_P1;SDS_P2;PMS_P1;PMS_P2;Temp;Humidity;BMP_temperature;BMP_pressure;BME280_temperature;BME280_humidity;BME280_pressure;Samples;Min_cycle;Max_cycle;Signal;HPM_P1;HPM_P2
2022/09/07 00:01:06;;;;;;;5.25;1.52;;;;;;;14.04;100.00;98917.03;5006461;28;20033;-78
2022/09/07 00:03:32;;;;;;;9.88;1.45;;;;;;;14.06;100.00;98922.94;5013836;28;20373;-79
2022/09/07 00:05:58;;;;;;;9.65;1.73;;;;;;;14.05;100.00;98913.31;5012576;28;20088;-78
2022/09/07 00:08:28;;;;;;;9.38;1.35;;;;;;;14.08;100.00;98906.81;4984565;28;20038;-79
2022/09/07 00:10:57;;;;;;;7.72;1.17;;;;;;;14.10;100.00;98908.22;4988459;28;20037;-79
2022/09/07 00:13:24;;;;;;;7.75;1.45;;;;;;;14.13;100.00;98906.97;4998598;28;20029;-79
2022/09/07 00:15:50;;;;;;;9.77;1.58;;;;;;;14.16;100.00;98903.13;4989308;28;20129;-79
2022/09/07 00:18:16;;;;;;;12.82;1.55;;;;;;;14.18;100.00;98904.53;4998973;28;20029;-78
2022/09/07 00:20:42;;;;;;;9.70;1.50;;;;;;;14.21;100.00;98904.13;5005263;28;20121;-79
2022/09/07 00:23:08;;;;;;;8.77;1.25;;;;;;;14.20;100.00;98899.00;4975490;28;20033;-78
2022/09/07 00:25:38;;;;;;;9.32;1.35;;;;;;;14.22;100.00;98894.31;4988057;28;20027;-79
2022/09/07 00:28:05;;;;;;;7.05;1.63;;;;;;;14.21;100.00;98898.81;4994878;28;20041;-79
2022/09/07 00:30:32;;;;;;;10.93;1.40;;;;;;;14.25;100.00;98901.88;4991617;28;20449;-78
2022/09/07 00:32:58;;;;;;;5.95;1.30;;;;;;;14.23;100.00;98901.25;4993902;28;20029;-80
2022/09/07 00:35:24;;;;;;;11.05;1.65;;;;;;;14.24;100.00;98901.06;5007133;28;20412;-79
2022/09/07 00:37:50;;;;;;;10.70;1.40;;;;;;;14.24;100.00;98900.22;5002327;28;20042;-80
2022/09/07 00:40:16;;;;;;;12.73;1.45;;;;;;;14.21;100.00;98892.66;4975344;28;20034;-79
2022/09/07 00:42:41;;;;;;;19.60;1.38;;;;;;;14.23;100.00;98898.59;4976291;28;20045;-79
2022/09/07 00:45:16;;;;;;;9.15;1.27;;;;;;;14.24;100.00;98905.53;4981802;28;20037;-79
2022/09/07 00:47:51;;;;;;;11.00;1.75;;;;;;;14.25;100.00;98905.34;5008876;28;20046;-78
2022/09/07 00:50:38;;;;;;;;;;;;;;;14.18;100.00;98904.53;5015402;28;20049;-79
2022/09/07 00:53:08;;;;;;;9.75;1.60;;;;;;;14.25;100.00;98894.69;5010183;28;19917;-78
2022/09/07 00:55:37;;;;;;;15.80;1.55;;;;;;;14.25;100.00;98894.69;5027784;28;20384;-79
2022/09/07 00:58:05;;;;;;;11.48;1.58;;;;;;;14.27;100.00;98903.28;5011984;28;20041;-78
2022/09/07 01:00:31;;;;;;;11.52;1.58;;;;;;;14.29;100.00;98899.59;4994802;28;20729;-78
2022/09/07 01:02:59;;;;;;;9.68;1.52;;;;;;;14.30;100.00;98903.91;4994536;28;20061;-79
2022/09/07 01:05:38;;;;;;;8.63;1.60;;;;;;;14.29;100.00;98902.25;4984090;28;20033;-79
2022/09/07 01:08:05;;;;;;;9.85;1.30;;;;;;;14.26;100.00;98903.50;4993129;28;20052;-79
2022/09/07 01:10:31;;;;;;;7.30;1.25;;;;;;;14.26;100.00;98899.00;4980311;28;20163;-79
2022/09/07 01:12:58;;;;;;;9.38;1.52;;;;;;;14.27;100.00;98899.81;4976781;28;20030;-79
2022/09/07 01:15:52;;;;;;;8.27;1.10;;;;;;;14.25;100.00;98891.25;4978202;28;20088;-78
2022/09/07 01:18:40;;;;;;;7.55;1.10;;;;;;;14.23;100.00;98888.78;4985919;28;20129;-78
2022/09/07 01:21:20;;;;;;;8.65;1.23;;;;;;;14.19;100.00;98890.22;5006859;28;20041;-79
2022/09/07 01:24:18;;;;;;;9.15;1.35;;;;;;;14.18;100.00;98885.94;4994572;28;20128;-78
2022/09/07 01:27:03;;;;;;;7.97;1.02;;;;;;;14.16;100.00;98880.00;4975093;28;20395;-77
2022/09/07 01:29:36;;;;;;;10.45;1.27;;;;;;;14.17;100.00;98879.00;4994845;28;20787;-79
2022/09/07 01:32:13;;;;;;;12.68;1.95;;;;;;;14.13;100.00;98873.28;4986691;28;20033;-79
2022/09/07 01:34:42;;;;;;;7.72;1.15;;;;;;;14.12;100.00;98878.78;5016462;28;20023;-79
2022/09/07 01:37:26;;;;;;;12.95;1.95;;;;;;;14.10;100.00;98873.69;4991996;28;20041;-80
2022/09/07 01:40:05;;;;;;;11.32;1.85;;;;;;;14.12;100.00;98876.13;4955648;28;20034;-79
2022/09/07 01:42:37;;;;;;;12.55;1.73;;;;;;;14.14;100.00;98876.75;4993109;28;20087;-80
2022/09/07 01:45:10;;;;;;;16.17;1.70;;;;;;;14.14;100.00;98869.56;5015691;28;20440;-79
2022/09/07 01:47:44;;;;;;;11.52;1.55;;;;;;;14.15;100.00;98865.09;5010334;28;20038;-79
2022/09/07 01:50:25;;;;;;;12.55;1.42;;;;;;;14.14;100.00;98864.25;4999182;28;20485;-80
2022/09/07 01:53:10;;;;;;;7.50;1.30;;;;;;;14.16;100.00;98860.59;4995946;28;20038;-79
2022/09/07 01:55:48;;;;;;;12.20;1.95;;;;;;;14.17;100.00;98852.44;4995191;28;20064;-79
2022/09/07 01:58:26;;;;;;;18.60;1.95;;;;;;;14.19;100.00;98852.22;4959623;28;20025;-80
2022/09/07 02:01:01;;;;;;;14.18;1.63;;;;;;;14.20;100.00;98867.13;5007137;28;20038;-78
2022/09/07 02:03:49;;;;;;;7.32;1.52;;;;;;;14.18;100.00;98855.88;4992898;28;20033;-79
2022/09/07 02:06:30;;;;;;;13.50;1.88;;;;;;;14.18;100.00;98858.53;5000083;28;20030;-78
2022/09/07 02:09:03;;;;;;;14.52;1.88;;;;;;;14.16;100.00;98850.78;4991378;28;20041;-77
2022/09/07 02:11:37;;;;;;;16.90;2.03;;;;;;;14.20;100.00;98852.00;4982072;28;20053;-78
2022/09/07 02:14:16;;;;;;;12.68;1.88;;;;;;;14.20;100.00;98852.00;4980268;28;20021;-79
2022/09/07 02:16:51;;;;;;;14.30;2.30;;;;;;;14.22;100.00;98854.47;4968003;28;20036;-78
2022/09/07 02:19:19;;;;;;;16.02;2.63;;;;;;;14.23;100.00;98848.09;4990286;28;20382;-78
2022/09/07 02:21:51;;;;;;;18.80;2.00;;;;;;;14.24;100.00;98847.06;4954248;28;20480;-78
2022/09/07 02:24:22;;;;;;;12.32;1.77;;;;;;;14.24;100.00;98847.06;5008665;28;20440;-79
2022/09/07 02:26:51;;;;;;;13.07;1.85;;;;;;;14.22;100.00;98847.28;5007481;28;20045;-79
2022/09/07 02:29:17;;;;;;;20.17;2.88;;;;;;;14.19;100.00;98839.72;4973058;28;20092;-78
2022/09/07 02:31:43;;;;;;;13.65;1.58;;;;;;;14.18;100.00;98843.41;4990278;28;20038;-78
2022/09/07 02:34:09;;;;;;;24.73;2.42;;;;;;;14.19;100.00;98841.59;4990238;28;20072;-79
2022/09/07 02:36:43;;;;;;;13.35;1.65;;;;;;;14.21;100.00;98836.88;4972907;28;20030;-78
2022/09/07 02:39:08;;;;;;;11.23;2.00;;;;;;;14.17;100.00;98835.66;4985769;28;20033;-79
2022/09/07 02:41:41;;;;;;;14.65;2.40;;;;;;;14.17;100.00;98836.47;4991794;28;20396;-78
2022/09/07 02:44:14;;;;;;;13.95;1.92;;;;;;;14.14;100.00;98843.00;4990527;28;20038;-78
2022/09/07 02:47:03;;;;;;;13.52;1.92;;;;;;;14.11;100.00;98846.09;5008180;28;20030;-80
2022/09/07 02:49:57;;;;;;;11.45;1.40;;;;;;;14.08;100.00;98856.31;4939477;28;20395;-76
2022/09/07 02:52:29;;;;;;;11.23;1.63;;;;;;;14.03;100.00;98859.56;5009499;28;20504;-79
2022/09/07 02:55:45;;;;;;;14.02;2.17;;;;;;;14.04;100.00;98860.41;4969493;28;20044;-78
2022/09/07 02:58:39;;;;;;;14.82;2.05;;;;;;;14.02;100.00;98855.28;4971125;28;20052;-79
2022/09/07 03:01:23;;;;;;;12.10;1.65;;;;;;;14.02;100.00;98856.13;4999835;28;20035;-78
2022/09/07 03:03:57;;;;;;;13.60;2.10;;;;;;;14.04;100.00;98863.06;5012984;28;20141;-77
2022/09/07 03:06:39;;;;;;;9.10;1.83;;;;;;;14.05;100.00;98854.88;4989482;28;20149;-78
2022/09/07 03:09:19;;;;;;;13.38;1.90;;;;;;;14.10;100.00;98849.78;4989859;28;20125;-78
2022/09/07 03:11:45;;;;;;;13.65;1.80;;;;;;;14.13;100.00;98852.00;4991673;28;20066;-78
2022/09/07 03:14:17;;;;;;;12.07;1.83;;;;;;;14.17;100.00;98854.25;4995819;28;20042;-78
2022/09/07 03:16:43;;;;;;;15.70;2.25;;;;;;;14.18;100.00;98840.75;5003382;28;20504;-78
2022/09/07 03:19:08;;;;;;;16.42;2.03;;;;;;;14.21;100.00;98843.00;5025541;28;20044;-79
2022/09/07 03:21:34;;;;;;;17.38;2.22;;;;;;;14.21;100.00;98837.69;4989996;28;20038;-80
2022/09/07 03:24:01;;;;;;;17.70;2.97;;;;;;;14.24;100.00;98845.25;5007706;28;20091;-78
2022/09/07 03:26:26;;;;;;;14.07;1.90;;;;;;;14.26;100.00;98850.34;5004130;28;20042;-78
2022/09/07 03:28:52;;;;;;;12.07;2.50;;;;;;;14.26;100.00;98842.38;4980192;28;20037;-79
2022/09/07 03:31:19;;;;;;;15.20;2.35;;;;;;;14.23;100.00;98838.31;4996431;28;20447;-79
2022/09/07 03:33:45;;;;;;;14.25;2.08;;;;;;;14.25;100.00;98838.91;5011141;28;20030;-79
2022/09/07 03:36:10;;;;;;;18.13;2.88;;;;;;;14.28;100.00;98840.34;4996188;28;20083;-78
2022/09/07 03:38:36;;;;;;;18.40;2.35;;;;;;;14.26;100.00;98837.88;4976533;28;20034;-78
2022/09/07 03:41:05;;;;;;;18.38;2.45;;;;;;;14.30;100.00;98827.63;4987943;28;20042;-79
2022/09/07 03:43:31;;;;;;;18.17;2.83;;;;;;;14.32;100.00;98835.41;4993947;28;20033;-79
2022/09/07 03:46:03;;;;;;;16.92;2.30;;;;;;;14.34;100.00;98828.03;5000345;28;20121;-78
2022/09/07 03:48:30;;;;;;;20.85;3.17;;;;;;;14.31;100.00;98829.28;4994846;28;20506;-79
2022/09/07 03:51:00;;;;;;;21.52;2.80;;;;;;;14.35;100.00;98827.03;5009353;28;20049;-78
2022/09/07 03:53:26;;;;;;;16.35;3.00;;;;;;;14.33;100.00;98834.41;5018151;28;20061;-78
2022/09/07 03:56:00;;;;;;;15.20;2.80;;;;;;;14.33;100.00;98832.56;5019568;28;20188;-79
2022/09/07 03:58:29;;;;;;;13.73;1.95;;;;;;;14.31;100.00;98833.78;4973407;28;20037;-80
2022/09/07 04:00:55;;;;;;;22.00;3.28;;;;;;;14.28;100.00;98837.69;4990626;28;20033;-79
2022/09/07 04:03:20;;;;;;;24.77;2.75;;;;;;;14.28;100.00;98837.69;5019254;28;20056;-79
2022/09/07 04:05:46;;;;;;;20.55;2.45;;;;;;;14.28;100.00;98835.03;5007199;28;20378;-79
2022/09/07 04:08:12;;;;;;;19.48;2.47;;;;;;;14.27;100.00;98833.38;5025415;28;20050;-78
2022/09/07 04:10:38;;;;;;;19.48;2.58;;;;;;;14.29;100.00;98833.16;5019595;28;20034;-79
2022/09/07 04:13:05;;;;;;;19.65;2.47;;;;;;;14.29;100.00;98834.00;4996575;28;20040;-80
2022/09/07 04:15:31;;;;;;;16.00;2.60;;;;;;;14.30;100.00;98832.16;4993664;28;20095;-81
2022/09/07 04:17:57;;;;;;;19.92;2.17;;;;;;;14.30;100.00;98837.47;4988855;28;20124;-80
2022/09/07 04:20:23;;;;;;;18.23;2.22;;;;;;;14.29;100.00;98831.34;4982421;28;20463;-78
2022/09/07 04:22:49;;;;;;;20.67;2.60;;;;;;;14.29;100.00;98835.81;5001397;28;20040;-79
2022/09/07 04:25:15;;;;;;;13.38;2.53;;;;;;;14.30;100.00;98838.25;4981814;28;20062;-79
2022/09/07 04:27:41;;;;;;;17.98;2.33;;;;;;;14.28;100.00;98837.69;4999520;28;20034;-79
2022/09/07 04:30:08;;;;;;;21.67;3.33;;;;;;;14.29;100.00;98839.31;4989994;28;20036;-80
2022/09/07 04:32:34;;;;;;;18.98;2.55;;;;;;;14.30;100.00;98842.78;5018516;28;20030;-79
2022/09/07 04:34:59;;;;;;;15.85;2.67;;;;;;;14.27;100.00;98839.50;4996053;28;20565;-81
2022/09/07 04:37:25;;;;;;;20.45;3.45;;;;;;;14.28;100.00;98829.72;4976568;28;20038;-79
2022/09/07 04:39:51;;;;;;;12.75;2.28;;;;;;;14.30;100.00;98829.50;5002739;28;20038;-78
2022/09/07 04:42:17;;;;;;;19.45;2.25;;;;;;;14.31;100.00;98833.78;5015372;28;20048;-79
2022/09/07 04:44:43;;;;;;;10.18;1.50;;;;;;;14.30;100.00;98832.16;4991497;28;20042;-79
2022/09/07 04:47:09;;;;;;;16.63;2.70;;;;;;;14.29;100.00;98834.00;5015121;28;20029;-79
2022/09/07 04:49:34;;;;;;;16.75;2.70;;;;;;;14.32;100.00;98830.91;5018487;28;20104;-79
2022/09/07 04:52:00;;;;;;;11.52;2.22;;;;;;;14.32;100.00;98822.94;4995751;28;20032;-78
2022/09/07 04:54:26;;;;;;;11.77;1.50;;;;;;;14.31;100.00;98831.94;5012896;28;20056;-79
2022/09/07 04:56:52;;;;;;;13.18;1.83;;;;;;;14.31;100.00;98831.94;4998235;28;20064;-79
2022/09/07 04:59:18;;;;;;;17.85;2.20;;;;;;;14.27;100.00;98825.41;4998730;28;20038;-79
2022/09/07 05:01:43;;;;;;;18.42;2.55;;;;;;;14.30;100.00;98824.97;4992304;28;20092;-79
2022/09/07 05:04:09;;;;;;;11.07;1.77;;;;;;;14.33;100.00;98831.75;4966054;28;20440;-79
2022/09/07 05:06:35;;;;;;;20.90;2.05;;;;;;;14.31;100.00;98831.13;4975272;28;20026;-80
2022/09/07 05:09:00;;;;;;;12.95;1.85;;;;;;;14.29;100.00;98830.50;4983758;28;20513;-79
2022/09/07 05:11:27;;;;;;;11.85;2.10;;;;;;;14.29;100.00;98814.56;4972612;28;20042;-79
2022/09/07 05:13:58;;;;;;;15.15;2.47;;;;;;;14.30;100.00;98818.88;5012719;28;20031;-78
2022/09/07 05:16:24;;;;;;;14.85;2.13;;;;;;;14.31;100.00;98820.50;4997654;28;20026;-79
2022/09/07 05:18:52;;;;;;;16.38;2.28;;;;;;;14.31;100.00;98817.84;4999691;28;20044;-79
2022/09/07 05:21:26;;;;;;;15.20;2.35;;;;;;;14.32;100.00;98817.63;4956296;28;20068;-79
2022/09/07 05:23:54;;;;;;;15.98;1.92;;;;;;;14.29;100.00;98810.06;4980037;28;20117;-79
2022/09/07 05:26:21;;;;;;;13.65;2.78;;;;;;;14.30;100.00;98811.69;4994079;28;20070;-81
2022/09/07 05:28:48;;;;;;;16.58;2.10;;;;;;;14.27;100.00;98810.28;5006694;28;20534;-79
2022/09/07 05:31:17;;;;;;;15.38;2.40;;;;;;;14.28;100.00;98811.09;5010208;28;20034;-79
2022/09/07 05:33:47;;;;;;;23.33;2.50;;;;;;;14.29;100.00;98809.25;5008556;28;20023;-79
2022/09/07 05:36:13;;;;;;;22.52;3.10;;;;;;;14.29;100.00;98815.38;4976430;28;20030;-79
2022/09/07 05:38:39;;;;;;;19.75;2.55;;;;;;;14.31;100.00;98813.34;4979266;28;20033;-78
2022/09/07 05:41:17;;;;;;;19.30;2.97;;;;;;;14.31;100.00;98808.03;4968108;28;20045;-79
2022/09/07 05:43:43;;;;;;;16.55;2.67;;;;;;;14.29;100.00;98810.06;5026107;28;20026;-78
2022/09/07 05:46:10;;;;;;;17.77;3.38;;;;;;;14.30;100.00;98802.94;5006456;28;20038;-79
2022/09/07 05:48:36;;;;;;;16.42;2.83;;;;;;;14.26;100.00;98806.00;5026519;28;20026;-80
2022/09/07 05:51:03;;;;;;;12.20;2.25;;;;;;;14.26;100.00;98798.03;4998453;28;20132;-82
2022/09/07 05:53:29;;;;;;;12.80;2.22;;;;;;;14.24;100.00;98799.25;4997458;28;20434;-79
2022/09/07 05:55:59;;;;;;;15.85;2.25;;;;;;;14.25;100.00;98798.25;4998486;28;20187;-80
2022/09/07 05:58:26;;;;;;;13.52;2.13;;;;;;;14.24;100.00;98807.22;5004429;28;20114;-80
2022/09/07 06:00:52;;;;;;;14.63;2.22;;;;;;;14.23;100.00;98806.41;4976055;28;20048;-78
2022/09/07 06:03:18;;;;;;;14.98;2.35;;;;;;;14.23;100.00;98805.59;5012358;28;20029;-79
2022/09/07 06:05:43;;;;;;;15.23;3.05;;;;;;;14.23;100.00;98810.91;4997771;28;20084;-81
2022/09/07 06:08:09;;;;;;;14.77;2.10;;;;;;;14.23;100.00;98805.59;5008341;28;20412;-80
2022/09/07 06:10:36;;;;;;;14.05;2.20;;;;;;;14.23;100.00;98811.72;5024140;28;20033;-80
2022/09/07 06:13:03;;;;;;;19.35;2.42;;;;;;;14.23;100.00;98810.91;4998790;28;20492;-79
2022/09/07 06:15:32;;;;;;;23.30;3.00;;;;;;;14.21;100.00;98819.09;4987483;28;20034;-79
2022/09/07 06:17:58;;;;;;;23.38;2.80;;;;;;;14.19;100.00;98818.47;4992588;28;20373;-78
2022/09/07 06:20:24;;;;;;;20.35;2.95;;;;;;;14.19;100.00;98817.69;4994277;28;20038;-79
2022/09/07 06:22:50;;;;;;;23.00;2.90;;;;;;;14.19;100.00;98830.97;5010083;28;20036;-79
2022/09/07 06:25:16;;;;;;;22.92;2.70;;;;;;;14.17;100.00;98833.81;4995174;28;20021;-78
2022/09/07 06:27:41;;;;;;;15.80;2.20;;;;;;;14.16;100.00;98820.75;4985888;28;20045;-79
2022/09/07 06:30:08;;;;;;;17.40;3.05;;;;;;;14.17;100.00;98814.41;4993691;28;20038;-79
2022/09/07 06:32:37;;;;;;;20.52;3.30;;;;;;;14.23;100.00;98819.72;5008958;28;20468;-79
2022/09/07 06:35:03;;;;;;;18.27;2.85;;;;;;;14.25;100.00;98822.16;5010813;28;20033;-79
2022/09/07 06:37:29;;;;;;;21.10;2.85;;;;;;;14.27;100.00;98820.09;4968342;28;20129;-79
2022/09/07 06:39:55;;;;;;;20.20;3.20;;;;;;;14.27;100.00;98823.56;5002740;28;20519;-79
2022/09/07 06:42:20;;;;;;;12.93;2.05;;;;;;;14.29;100.00;98827.84;4986366;28;20137;-79
2022/09/07 06:44:51;;;;;;;17.38;2.72;;;;;;;14.30;100.00;98821.53;4987817;28;21727;-79
2022/09/07 06:47:16;;;;;;;19.52;2.65;;;;;;;14.30;100.00;98824.97;4963473;28;20136;-79
2022/09/07 06:49:42;;;;;;;23.17;2.78;;;;;;;14.29;100.00;98815.38;4994949;28;20038;-79
2022/09/07 06:52:08;;;;;;;15.82;2.00;;;;;;;14.29;100.00;98827.84;4979858;28;20030;-78
2022/09/07 06:54:33;;;;;;;20.55;2.75;;;;;;;14.29;100.00;98830.50;4975241;28;20041;-79
2022/09/07 06:56:59;;;;;;;22.35;3.10;;;;;;;14.30;100.00;98832.16;4984362;28;20033;-79
2022/09/07 06:59:25;;;;;;;14.40;2.20;;;;;;;14.30;100.00;98824.19;5007086;28;20038;-80
2022/09/07 07:01:50;;;;;;;20.05;2.25;;;;;;;14.30;100.00;98826.84;5005488;28;20034;-78
2022/09/07 07:04:16;;;;;;;21.85;3.33;;;;;;;14.32;100.00;98830.09;5000838;28;20046;-78
2022/09/07 07:06:42;;;;;;;21.35;3.22;;;;;;;14.34;100.00;98834.19;5003916;28;20038;-78
2022/09/07 07:09:11;;;;;;;23.15;2.60;;;;;;;14.38;100.00;98830.06;5005629;28;20046;-78
2022/09/07 07:11:37;;;;;;;12.55;2.92;;;;;;;14.38;100.00;98827.41;5004419;28;20061;-79
2022/09/07 07:14:03;;;;;;;15.18;2.45;;;;;;;14.41;100.00;98838.66;5010373;28;20458;-79
2022/09/07 07:16:29;;;;;;;21.70;2.60;;;;;;;14.41;100.00;98842.16;5012179;28;20113;-79
2022/09/07 07:18:55;;;;;;;16.98;2.58;;;;;;;14.44;100.00;98835.59;5026297;28;20034;-79
2022/09/07 07:21:21;;;;;;;16.25;2.80;;;;;;;14.45;100.00;98835.38;4977336;28;20091;-78
2022/09/07 07:23:52;;;;;;;18.73;2.85;;;;;;;14.49;100.00;98839.22;4993804;28;20038;-79
2022/09/07 07:26:25;;;;;;;18.95;3.65;;;;;;;14.52;100.00;98836.16;4974263;28;20081;-79
2022/09/07 07:28:53;;;;;;;20.25;3.10;;;;;;;14.56;100.00;98830.41;4998782;28;20045;-79
2022/09/07 07:31:22;;;;;;;19.80;3.42;;;;;;;14.58;100.00;98836.34;4975787;28;20472;-80
2022/09/07 07:33:48;;;;;;;19.08;2.50;;;;;;;14.60;100.00;98843.09;5017438;28;20057;-79
2022/09/07 07:36:17;;;;;;;14.02;2.80;;;;;;;14.66;100.00;98836.13;5000377;28;20031;-79
2022/09/07 07:38:45;;;;;;;13.48;1.98;;;;;;;14.69;100.00;98838.34;4974611;28;20031;-79
2022/09/07 07:41:12;;;;;;;15.63;2.53;;;;;;;14.73;100.00;98839.56;4962764;28;20038;-79
2022/09/07 07:43:39;;;;;;;16.60;2.50;;;;;;;14.81;100.00;98840.38;4987594;28;20057;-79
2022/09/07 07:46:06;;;;;;;18.65;2.63;;;;;;;14.90;100.00;98841.78;4993714;28;20529;-79
2022/09/07 07:48:33;;;;;;;18.88;2.38;;;;;;;14.98;100.00;98846.03;4958628;28;20092;-79
2022/09/07 07:51:06;;;;;;;22.48;2.97;;;;;;;15.11;100.00;98853.13;5012340;28;20040;-79
2022/09/07 07:53:35;;;;;;;18.98;2.60;;;;;;;15.20;100.00;98846.50;5028616;28;20108;-79
2022/09/07 07:56:02;;;;;;;16.67;2.47;;;;;;;15.25;100.00;98843.19;4993794;28;20038;-80
2022/09/07 07:58:30;;;;;;;12.57;2.25;;;;;;;15.31;100.00;98849.50;4989533;28;20026;-81
2022/09/07 08:01:04;;;;;;;13.75;1.95;;;;;;;15.36;100.00;98845.19;4964987;28;20369;-79
2022/09/07 08:03:34;;;;;;;10.85;2.28;;;;;;;15.43;100.00;98842.44;4980446;28;20045;-79
2022/09/07 08:06:08;;;;;;;12.05;1.90;;;;;;;15.49;100.00;98851.44;5007744;28;20504;-79
2022/09/07 08:08:36;;;;;;;15.15;2.30;;;;;;;15.52;100.00;98847.53;4992125;28;20590;-77
2022/09/07 08:11:06;;;;;;;15.23;2.58;;;;;;;15.52;100.00;98853.66;5007043;28;20038;-80
2022/09/07 08:13:32;;;;;;;14.98;2.53;;;;;;;15.49;100.00;98857.59;4991803;28;20034;-77
2022/09/07 08:15:58;;;;;;;11.75;2.03;;;;;;;15.45;100.00;98851.03;5015264;28;20041;-81
2022/09/07 08:18:24;;;;;;;17.42;2.40;;;;;;;15.43;100.00;98852.31;5001726;28;20093;-77
2022/09/07 08:20:49;;;;;;;14.18;2.22;;;;;;;15.39;100.00;98857.22;4999643;28;20064;-79
2022/09/07 08:23:16;;;;;;;14.32;2.50;;;;;;;15.37;100.00;98852.13;4987969;28;20042;-79
2022/09/07 08:26:02;;;;;;;17.50;2.60;;;;;;;15.37;100.00;98854.78;4989556;28;20031;-79
2022/09/07 08:28:30;;;;;;;19.27;2.00;;;;;;;15.35;100.00;98856.84;4985035;28;20038;-77
2022/09/07 08:30:57;;;;;;;16.02;2.47;;;;;;;15.32;100.00;98845.81;4976550;28;20065;-76
2022/09/07 08:33:23;;;;;;;14.35;2.50;;;;;;;15.34;100.00;98852.56;4982628;28;20118;-78
2022/09/07 08:35:54;;;;;;;12.50;2.47;;;;;;;15.34;100.00;98855.22;5003799;28;20109;-80
2022/09/07 08:38:20;;;;;;;18.58;2.90;;;;;;;15.34;100.00;98847.22;5005736;28;20047;-79
2022/09/07 08:40:46;;;;;;;15.73;2.80;;;;;;;15.34;100.00;98852.56;5004870;28;20457;-79
2022/09/07 08:43:20;;;;;;;15.93;2.13;;;;;;;15.37;100.00;98861.94;4983345;28;20038;-78
2022/09/07 08:45:51;;;;;;;22.30;3.38;;;;;;;15.34;100.00;98865.03;4988580;28;20059;-79
2022/09/07 08:48:22;;;;;;;24.70;4.07;;;;;;;15.36;100.00;98869.16;4970464;28;20033;-79
2022/09/07 08:51:08;;;;;;;20.63;2.75;;;;;;;15.39;100.00;98865.22;4983835;28;20029;-79
2022/09/07 08:53:36;;;;;;;;;;;;;;;15.31;100.00;98874.28;4961583;28;20073;-78
2022/09/07 08:56:10;;;;;;;17.83;2.35;;;;;;;15.42;100.00;98862.13;5008389;28;19921;-80
2022/09/07 08:58:46;;;;;;;14.65;2.28;;;;;;;15.43;100.00;98870.94;4965752;28;20486;-79
2022/09/07 09:01:22;;;;;;;21.42;3.63;;;;;;;15.44;100.00;98862.75;4985074;28;20868;-78
2022/09/07 09:03:48;;;;;;;20.00;3.13;;;;;;;15.46;100.00;98867.84;4988341;28;20508;-80
2022/09/07 09:06:23;;;;;;;26.52;3.58;;;;;;;15.46;100.00;98867.84;4990998;28;20030;-78
2022/09/07 09:09:00;;;;;;;23.10;2.90;;;;;;;15.50;100.00;98867.19;4994132;28;20198;-78
2022/09/07 09:11:35;;;;;;;15.65;2.90;;;;;;;15.53;100.00;98876.59;4994587;28;20035;-78
2022/09/07 09:14:15;;;;;;;19.00;3.03;;;;;;;15.57;100.00;98871.66;4999637;28;20028;-78
2022/09/07 09:16:52;;;;;;;23.35;3.25;;;;;;;15.58;100.00;98878.59;4965200;28;20035;-78
2022/09/07 09:19:23;;;;;;;21.23;3.15;;;;;;;15.61;100.00;98878.16;4988047;28;20034;-79
2022/09/07 09:22:03;;;;;;;16.20;2.47;;;;;;;15.61;100.00;98863.03;4995602;28;20124;-79
2022/09/07 09:24:36;;;;;;;9.65;2.00;;;;;;;15.60;100.00;98872.06;5022537;28;20757;-78
2022/09/07 09:27:02;;;;;;;16.77;2.72;;;;;;;15.62;100.00;98867.31;4950410;28;20500;-77
2022/09/07 09:29:28;;;;;;;20.20;2.30;;;;;;;15.63;100.00;98866.28;4993218;28;20089;-80
2022/09/07 09:31:53;;;;;;;16.70;2.58;;;;;;;15.66;100.00;98867.69;5019762;28;20030;-80
2022/09/07 09:34:20;;;;;;;18.55;3.47;;;;;;;15.67;100.00;98873.84;5003312;28;20104;-80
2022/09/07 09:36:47;;;;;;;17.08;2.50;;;;;;;15.70;100.00;98871.53;5011095;28;20054;-80
2022/09/07 09:39:34;;;;;;;23.88;3.85;;;;;;;15.69;100.00;98872.59;4984498;28;20034;-79
2022/09/07 09:42:06;;;;;;;23.13;2.90;;;;;;;15.73;100.00;98873.81;5005085;28;20087;-79
2022/09/07 09:44:36;;;;;;;19.45;2.47;;;;;;;15.75;100.00;98870.91;4998854;28;20096;-79
2022/09/07 09:47:02;;;;;;;16.77;3.13;;;;;;;15.75;100.00;98876.25;4974476;28;20165;-79
2022/09/07 09:49:34;;;;;;;19.65;3.55;;;;;;;15.78;100.00;98880.31;4957805;28;20121;-79
2022/09/07 09:52:03;;;;;;;15.98;2.28;;;;;;;15.79;100.00;98879.28;4979223;28;20069;-79
2022/09/07 09:54:40;;;;;;;14.63;2.78;;;;;;;15.78;100.00;98883.81;5012316;28;20104;-80
2022/09/07 09:57:14;;;;;;;18.63;2.83;;;;;;;15.75;100.00;98887.69;5004045;28;20053;-80
2022/09/07 09:59:40;;;;;;;14.00;2.17;;;;;;;15.74;100.00;98882.59;5015920;28;20515;-80
2022/09/07 10:02:31;;;;;;;10.13;2.13;;;;;;;15.72;100.00;98879.31;4988750;28;20133;-80
2022/09/07 10:04:57;;;;;;;11.02;2.15;;;;;;;15.69;100.00;98877.09;4989846;28;20467;-81
2022/09/07 10:07:28;;;;;;;13.70;2.22;;;;;;;15.69;100.00;98879.75;4996847;28;20048;-79
2022/09/07 10:09:55;;;;;;;16.33;2.90;;;;;;;15.67;100.00;98879.16;4995123;28;20034;-80
2022/09/07 10:12:35;;;;;;;11.98;2.17;;;;;;;15.71;100.00;98875.84;5002299;28;20191;-78
2022/09/07 10:15:05;;;;;;;14.48;2.22;;;;;;;15.79;100.00;98872.09;5001654;28;20037;-80
2022/09/07 10:17:36;;;;;;;10.65;2.13;;;;;;;15.78;100.00;98872.31;4999189;28;20122;-79
2022/09/07 10:20:11;;;;;;;16.80;2.45;;;;;;;15.83;100.00;98878.63;4993206;28;20117;-79
2022/09/07 10:22:38;;;;;;;15.13;2.37;;;;;;;15.85;100.00;98881.06;4992444;28;20049;-78
2022/09/07 10:25:31;;;;;;;13.00;2.90;;;;;;;15.88;100.00;98873.47;5019765;28;20041;-79
2022/09/07 10:28:08;;;;;;;14.25;2.90;;;;;;;15.91;100.00;98866.88;4993005;28;20252;-79
2022/09/07 10:30:49;;;;;;;19.08;3.70;;;;;;;15.85;100.00;98876.56;5001421;28;20381;-79
2022/09/07 10:33:43;;;;;;;18.75;3.10;;;;;;;15.84;100.00;98868.78;4986784;28;20123;-78
2022/09/07 10:36:26;;;;;;;23.58;2.83;;;;;;;15.82;100.00;98863.66;4997520;28;20395;-78
2022/09/07 10:39:27;;;;;;;14.55;2.63;;;;;;;15.83;100.00;98865.28;4987294;28;20042;-77
2022/09/07 10:42:03;;;;;;;24.80;3.45;;;;;;;15.87;100.00;98869.16;4992988;28;20413;-79
2022/09/07 10:44:50;;;;;;;19.20;3.58;;;;;;;15.88;100.00;98872.63;5002526;28;20041;-77
2022/09/07 10:47:43;;;;;;;21.73;2.95;;;;;;;15.87;100.00;98868.34;5019733;28;20029;-78
2022/09/07 10:50:24;;;;;;;19.92;3.25;;;;;;;15.91;100.00;98871.41;4984271;28;20030;-78
2022/09/07 10:53:07;;;;;;;22.08;3.17;;;;;;;15.89;100.00;98866.28;4971851;28;20066;-78
2022/09/07 10:55:40;;;;;;;24.17;2.95;;;;;;;15.88;100.00;98859.31;4996624;28;20038;-79
2022/09/07 10:58:30;;;;;;;18.58;2.95;;;;;;;15.85;100.00;98875.72;5000861;28;20397;-78
2022/09/07 11:00:56;;;;;;;25.58;3.13;;;;;;;15.82;100.00;98879.66;4988670;28;20038;-78
2022/09/07 11:03:51;;;;;;;29.10;3.50;;;;;;;15.74;100.00;98872.75;4998886;28;20501;-78
2022/09/07 11:06:21;;;;;;;20.63;3.20;;;;;;;15.73;100.00;98868.47;4998680;28;20446;-78
2022/09/07 11:09:30;;;;;;;26.58;3.80;;;;;;;15.70;100.00;98870.75;4988104;28;20104;-78
2022/09/07 11:12:05;;;;;;;31.63;4.28;;;;;;;15.74;100.00;98871.94;4987521;28;20047;-78
2022/09/07 11:14:42;;;;;;;16.00;3.37;;;;;;;15.79;100.00;98864.13;4976462;28;20097;-78
2022/09/07 11:17:23;;;;;;;26.35;4.20;;;;;;;15.83;100.00;98864.50;4991261;28;20046;-79
2022/09/07 11:19:56;;;;;;;22.80;2.95;;;;;;;15.91;100.00;98864.19;4979025;28;20030;-79
2022/09/07 11:22:33;;;;;;;25.90;4.32;;;;;;;15.97;100.00;98866.03;5015001;28;20092;-80
2022/09/07 11:25:22;;;;;;;21.88;3.72;;;;;;;16.18;100.00;98861.31;4987948;28;20075;-78
2022/09/07 11:27:53;;;;;;;24.73;3.83;;;;;;;16.40;100.00;98860.91;4948033;28;20082;-78
2022/09/07 11:30:30;;;;;;;23.98;3.15;;;;;;;16.67;100.00;98857.09;4996197;28;20045;-79
2022/09/07 11:33:12;;;;;;;17.70;2.65;;;;;;;16.90;100.00;98861.72;4982925;28;20030;-78
2022/09/07 11:35:50;;;;;;;18.02;2.83;;;;;;;16.98;100.00;98853.41;4999806;28;20046;-79
2022/09/07 11:38:41;;;;;;;24.48;3.22;;;;;;;17.06;100.00;98848.78;5014132;28;20034;-79